createdAt,value
2023-02-16T00:02:01.146Z,45.83
2023-02-16T00:06:25.748Z,48.75
2023-02-16T00:11:08.892Z,118.72
2023-02-16T00:15:33.597Z,21.23
2023-02-16T00:19:57.529Z,120.35
2023-02-16T00:24:22.492Z,76.38
2023-02-16T00:28:51.641Z,179.40
2023-02-16T00:33:16.829Z,168.27
2023-02-16T00:37:40.670Z,141.07
2023-02-16T00:42:07.204Z,53.97
2023-02-16T00:46:32.744Z,105.55
2023-02-16T00:50:57.564Z,20.55
2023-02-16T00:55:24.555Z,68.60
2023-02-16T00:59:50.284Z,19.97
2023-02-16T01:04:21.361Z,128.57
2023-02-16T01:09:03.048Z,16.10
2023-02-16T01:13:31.372Z,18.07
2023-02-16T01:17:55.369Z,14.93
2023-02-16T01:22:21.025Z,33.65
2023-02-16T01:26:50.058Z,26.40
2023-02-16T01:31:15.037Z,142.48
2023-02-16T01:35:39.375Z,222.18
2023-02-16T01:40:05.589Z,271.33
2023-02-16T01:44:37.452Z,255.30
2023-02-16T01:49:04.413Z,268.13
2023-02-16T01:53:32.767Z,258.70
2023-02-16T01:58:02.870Z,272.80
2023-02-16T02:02:29.056Z,276.50
2023-02-16T02:06:53.028Z,286.85
2023-02-16T02:11:23.507Z,292.60
2023-02-16T02:15:54.716Z,295.58
2023-02-16T02:20:48.524Z,291.25
2023-02-16T02:25:41.891Z,302.90
2023-02-16T02:30:20.580Z,299.63
2023-02-16T02:35:01.026Z,301.17
2023-02-16T02:39:40.995Z,325.92
2023-02-16T02:44:10.002Z,316.87
2023-02-16T02:48:36.532Z,307.38
2023-02-16T02:53:04.926Z,307.33
2023-02-16T02:57:46.050Z,332.47
2023-02-16T03:02:05.528Z,350.15
2023-02-16T03:06:28.260Z,354.42
2023-02-16T03:11:10.848Z,373.13
2023-02-16T03:15:32.539Z,376.17
2023-02-16T03:20:10.634Z,351.95
2023-02-16T03:24:49.035Z,330.10
2023-02-16T03:29:19.348Z,300.67
2023-02-16T03:33:44.077Z,347.30
2023-02-16T03:38:08.772Z,371.88
2023-02-16T03:42:34.125Z,368.63
2023-02-16T03:46:57.975Z,363.83
2023-02-16T03:51:21.991Z,358.60
2023-02-16T03:55:49.006Z,360.30
2023-02-16T04:00:15.088Z,363.70
2023-02-16T04:04:40.670Z,342.52
2023-02-16T04:09:05.038Z,302.67
2023-02-16T04:13:29.257Z,337.17
2023-02-16T04:17:55.328Z,310.73
2023-02-16T04:22:19.129Z,317.48
2023-02-16T04:26:43.214Z,320.70
2023-02-16T04:31:07.521Z,242.98
2023-02-16T04:35:33.156Z,399.70
2023-02-16T04:39:57.251Z,413.85
2023-02-16T04:44:21.352Z,428.23
2023-02-16T04:48:47.253Z,436.88
2023-02-16T04:53:12.822Z,444.25
2023-02-16T04:57:37.023Z,441.70
2023-02-16T05:02:00.829Z,447.60
2023-02-16T05:06:24.683Z,440.58
2023-02-16T05:11:09.852Z,353.93
2023-02-16T05:15:32.696Z,322.45
2023-02-16T05:19:59.128Z,381.20
2023-02-16T05:24:23.199Z,428.23
2023-02-16T05:28:48.353Z,437.33
2023-02-16T05:33:12.207Z,428.60
2023-02-16T05:37:36.172Z,445.30
2023-02-16T05:42:00.209Z,435.73
2023-02-16T05:46:27.176Z,442.23
2023-02-16T05:50:52.952Z,433.58
2023-02-16T05:55:17.271Z,433.33
2023-02-16T05:59:41.587Z,441.05
2023-02-16T06:04:07.182Z,458.30
2023-02-16T06:08:31.685Z,462.27
2023-02-16T06:12:55.554Z,373.70
2023-02-16T06:17:19.457Z,433.15
2023-02-16T06:21:45.011Z,473.42
2023-02-16T06:26:08.998Z,478.47
2023-02-16T06:30:33.068Z,473.83
2023-02-16T06:34:57.138Z,468.52
2023-02-16T06:39:22.519Z,466.80
2023-02-16T06:43:46.349Z,479.00
2023-02-16T06:48:10.309Z,495.85
2023-02-16T06:52:34.817Z,516.72
2023-02-16T06:57:00.177Z,536.77
2023-02-16T07:01:27.962Z,560.20
2023-02-16T07:05:54.334Z,558.10
2023-02-16T07:10:20.121Z,522.63
2023-02-16T07:14:45.816Z,562.35
2023-02-16T07:19:10.006Z,546.08
2023-02-16T07:23:34.067Z,639.33
2023-02-16T07:27:58.476Z,660.45
2023-02-16T07:32:23.721Z,638.20
2023-02-16T07:36:47.603Z,536.70
2023-02-16T07:41:12.610Z,536.20
2023-02-16T07:45:37.151Z,542.25
2023-02-16T07:50:02.456Z,565.95
2023-02-16T07:54:26.368Z,588.40
2023-02-16T07:58:52.254Z,592.05
2023-02-16T08:03:16.381Z,587.20
2023-02-16T08:07:41.932Z,535.53
2023-02-16T08:12:06.275Z,246.00
2023-02-16T08:16:34.218Z,29.17
2023-02-16T08:21:04.145Z,198.23
2023-02-16T08:25:30.020Z,395.83
2023-02-16T08:29:54.168Z,175.98
2023-02-16T08:34:20.018Z,66.60
2023-02-16T08:38:44.194Z,309.30
2023-02-16T08:43:09.840Z,368.67
2023-02-16T08:47:34.196Z,95.05
2023-02-16T08:52:01.544Z,60.33
2023-02-16T08:56:26.097Z,22.77
2023-02-16T09:00:51.956Z,23.42
2023-02-16T09:05:16.347Z,25.38
2023-02-16T09:09:41.846Z,22.87
2023-02-16T09:14:11.261Z,25.35
2023-02-16T09:18:36.961Z,25.73
2023-02-16T09:23:00.969Z,23.67
2023-02-16T09:27:24.885Z,23.25
2023-02-16T09:31:49.599Z,25.83
2023-02-16T09:36:15.857Z,23.70
2023-02-16T09:40:39.789Z,23.77
2023-02-16T09:45:09.879Z,23.67
2023-02-16T09:49:38.817Z,26.05
2023-02-16T09:54:16.686Z,24.60
2023-02-16T09:58:46.230Z,22.70
2023-02-16T10:03:25.046Z,25.65
2023-02-16T10:07:59.000Z,27.43
2023-02-16T10:12:28.020Z,24.88
2023-02-16T10:16:56.524Z,25.00
2023-02-16T10:21:25.058Z,21.53
2023-02-16T10:25:55.075Z,26.90
2023-02-16T10:30:24.950Z,26.23
2023-02-16T10:34:51.845Z,25.67
2023-02-16T10:39:22.629Z,24.93
2023-02-16T10:43:53.250Z,26.10
2023-02-16T10:48:21.093Z,25.00
2023-02-16T10:52:46.034Z,25.40
2023-02-16T10:57:25.140Z,24.25
2023-02-16T11:01:51.256Z,25.20
2023-02-16T11:06:19.295Z,26.30
2023-02-16T11:10:49.054Z,24.50
2023-02-16T11:15:27.563Z,29.73
2023-02-16T11:19:55.739Z,26.90
2023-02-16T11:24:28.600Z,24.73
2023-02-16T11:28:53.148Z,26.70
2023-02-16T11:33:25.649Z,27.48
2023-02-16T11:37:49.857Z,28.27
2023-02-16T11:42:30.104Z,25.80
2023-02-16T11:46:56.610Z,25.13
2023-02-16T11:51:36.944Z,27.00
2023-02-16T11:56:16.035Z,27.13
2023-02-16T12:00:48.478Z,25.05
2023-02-16T12:05:26.218Z,23.50
2023-02-16T12:10:00.951Z,25.63
2023-02-16T12:14:36.583Z,29.50
2023-02-16T12:19:14.783Z,26.65
2023-02-16T12:23:43.801Z,24.60
2023-02-16T12:28:17.075Z,26.05
2023-02-16T12:32:53.638Z,24.33
2023-02-16T12:37:28.273Z,27.17
2023-02-16T12:42:20.314Z,26.40
2023-02-16T12:46:46.921Z,28.08
2023-02-16T12:51:15.228Z,29.80
2023-02-16T12:55:46.966Z,23.87
2023-02-16T13:00:22.513Z,25.25
2023-02-16T13:04:51.843Z,25.55
2023-02-16T13:09:25.658Z,27.10
2023-02-16T13:13:54.760Z,27.60
2023-02-16T13:18:22.770Z,19.98
2023-02-16T13:23:24.738Z,24.80
2023-02-16T13:27:59.572Z,24.05
2023-02-16T13:32:46.020Z,20.00
2023-02-16T13:37:24.652Z,22.63
2023-02-16T13:42:35.078Z,19.80
2023-02-16T13:47:06.009Z,23.23
2023-02-16T13:51:43.186Z,22.52
2023-02-16T13:56:17.946Z,20.50
2023-02-16T14:00:43.904Z,23.92
2023-02-16T14:05:12.814Z,25.48
2023-02-16T14:09:52.243Z,29.03
2023-02-16T14:14:28.560Z,20.48
2023-02-16T14:18:58.510Z,20.75
2023-02-16T14:23:34.486Z,25.50
2023-02-16T14:28:03.286Z,22.37
2023-02-16T14:32:38.535Z,24.90
2023-02-16T14:37:31.073Z,24.65
2023-02-16T14:42:07.278Z,24.73
2023-02-16T14:46:43.418Z,22.88
2023-02-16T14:51:29.120Z,23.80
2023-02-16T14:56:12.104Z,24.73
2023-02-16T15:00:45.910Z,24.98
2023-02-16T15:05:20.147Z,24.70
2023-02-16T15:09:44.289Z,21.45
2023-02-16T15:14:11.826Z,27.23
2023-02-16T15:18:41.858Z,19.33
2023-02-16T15:23:17.947Z,21.98
2023-02-16T15:27:42.346Z,23.03
2023-02-16T15:32:08.598Z,23.83
2023-02-16T15:36:35.422Z,31.67
2023-02-16T15:41:02.027Z,22.97
2023-02-16T15:45:30.724Z,25.52
2023-02-16T15:49:55.628Z,24.77
2023-02-16T15:54:25.108Z,27.48
2023-02-16T15:58:50.711Z,24.43
2023-02-16T16:03:17.652Z,24.42
2023-02-16T16:07:43.296Z,22.75
2023-02-16T16:12:11.681Z,26.90
2023-02-16T16:16:37.246Z,23.25
2023-02-16T16:21:03.226Z,22.85
2023-02-16T16:25:39.965Z,24.73
2023-02-16T16:30:27.523Z,24.50
2023-02-16T16:34:53.184Z,26.10
2023-02-16T16:39:28.190Z,23.95
2023-02-16T16:43:55.822Z,25.33
2023-02-16T16:48:23.204Z,28.15
2023-02-16T16:52:50.243Z,29.27
2023-02-16T16:57:18.349Z,30.57
2023-02-16T17:01:42.983Z,28.55
2023-02-16T17:06:10.591Z,30.45
2023-02-16T17:10:37.743Z,28.67
2023-02-16T17:15:02.130Z,29.50
2023-02-16T17:19:29.481Z,28.90
2023-02-16T17:23:53.726Z,28.58
2023-02-16T17:28:20.800Z,32.00
2023-02-16T17:32:44.639Z,27.73
2023-02-16T17:37:37.575Z,25.80
2023-02-16T17:41:57.165Z,23.47
2023-02-16T17:46:16.836Z,25.42
2023-02-16T17:50:35.803Z,27.35
2023-02-16T17:54:53.817Z,22.03
2023-02-16T17:59:15.362Z,19.27
2023-02-16T18:03:34.663Z,23.90
2023-02-16T18:07:54.267Z,22.17
2023-02-16T18:12:12.201Z,19.30
2023-02-16T18:16:30.264Z,15.45
2023-02-16T18:20:50.208Z,19.77
2023-02-16T18:25:10.045Z,23.47
2023-02-16T18:29:27.596Z,21.70
2023-02-16T18:33:45.594Z,21.13
2023-02-16T18:38:04.922Z,21.73
2023-02-16T18:42:24.785Z,21.77
2023-02-16T18:46:43.053Z,21.15
2023-02-16T18:51:04.563Z,24.67
2023-02-16T18:55:32.992Z,20.93
2023-02-16T18:59:53.320Z,23.33
2023-02-16T19:04:13.473Z,20.42
2023-02-16T19:08:31.556Z,22.90
2023-02-16T19:12:51.147Z,23.05
2023-02-16T19:17:10.695Z,24.50
2023-02-16T19:21:28.836Z,23.60
2023-02-16T19:25:46.859Z,25.20
2023-02-16T19:30:08.105Z,23.77
2023-02-16T19:34:26.369Z,24.90
2023-02-16T19:38:44.457Z,27.70
2023-02-16T19:43:02.034Z,27.98
2023-02-16T19:47:21.547Z,26.35
2023-02-16T19:51:41.374Z,25.10
2023-02-16T19:55:59.687Z,25.27
2023-02-16T20:00:17.628Z,27.35
2023-02-16T20:04:36.700Z,23.50
2023-02-16T20:08:57.904Z,24.48
2023-02-16T20:13:17.684Z,26.15
2023-02-16T20:17:35.893Z,21.85
2023-02-16T20:21:56.067Z,24.70
2023-02-16T20:26:17.881Z,23.27
2023-02-16T20:30:36.136Z,22.13
2023-02-16T20:34:54.481Z,20.67
2023-02-16T20:39:13.534Z,23.27
2023-02-16T20:43:33.998Z,20.85
2023-02-16T20:47:51.355Z,19.53
2023-02-16T20:52:10.633Z,21.92
2023-02-16T20:56:31.975Z,20.90
2023-02-16T21:00:51.716Z,24.55
2023-02-16T21:05:10.699Z,22.77
2023-02-16T21:09:27.794Z,24.88
2023-02-16T21:13:47.621Z,23.92
2023-02-16T21:18:07.004Z,23.63
2023-02-16T21:22:25.443Z,27.35
2023-02-16T21:26:43.004Z,24.25
2023-02-16T21:31:06.909Z,24.77
2023-02-16T21:35:25.364Z,23.75
2023-02-16T21:40:00.961Z,24.65
2023-02-16T21:44:19.856Z,24.83
2023-02-16T21:48:48.588Z,21.67
2023-02-16T21:53:09.520Z,25.92
2023-02-16T22:10:18.825Z,30.02
2023-02-16T22:14:38.826Z,24.93
2023-02-16T22:19:01.252Z,28.00
2023-02-16T22:23:21.295Z,24.90
2023-02-16T22:27:40.618Z,25.60
2023-02-16T22:32:00.205Z,28.05
2023-02-16T22:36:18.387Z,24.13
2023-02-16T22:40:36.522Z,25.27
2023-02-16T22:44:56.075Z,27.23
2023-02-16T22:49:16.146Z,27.00
2023-02-16T22:53:34.232Z,26.73
2023-02-16T22:57:52.583Z,26.60
2023-02-16T23:02:11.022Z,26.83
2023-02-16T23:06:33.462Z,28.02
2023-02-16T23:11:01.011Z,26.77
2023-02-16T23:15:19.250Z,29.38
2023-02-16T23:19:38.530Z,26.63
2023-02-16T23:24:02.701Z,80.43
2023-02-16T23:28:26.563Z,256.20
2023-02-16T23:32:50.639Z,362.08
2023-02-16T23:37:16.225Z,357.50
2023-02-16T23:41:41.333Z,345.70
2023-02-16T23:46:06.153Z,292.83
2023-02-16T23:50:30.250Z,28.30
2023-02-16T23:54:55.725Z,19.90
2023-02-16T23:59:19.617Z,152.93
